sensor_id;sensor_type;location;lat;lon;timestamp;temperature;humidity
33761;DHT22;20084;47.912;19.044;2023-07-30T00:01:30;23.00;99.90
33761;DHT22;20084;47.912;19.044;2023-07-30T00:03:56;23.00;99.90
33761;DHT22;20084;47.912;19.044;2023-07-30T00:06:21;23.00;99.90
33761;DHT22;20084;47.912;19.044;2023-07-30T00:08:47;23.00;99.90
33761;DHT22;20084;47.912;19.044;2023-07-30T00:11:12;23.10;99.90
33761;DHT22;20084;47.912;19.044;2023-07-30T00:13:37;23.10;99.90
33761;DHT22;20084;47.912;19.044;2023-07-30T00:16:03;23.10;99.90
33761;DHT22;20084;47.912;19.044;2023-07-30T00:18:29;23.10;99.90
33761;DHT22;20084;47.912;19.044;2023-07-30T00:20:54;23.10;99.90
33761;DHT22;20084;47.912;19.044;2023-07-30T00:23:20;23.20;99.90
33761;DHT22;20084;47.912;19.044;2023-07-30T00:25:45;23.20;99.90
33761;DHT22;20084;47.912;19.044;2023-07-30T00:28:11;23.20;99.90
33761;DHT22;20084;47.912;19.044;2023-07-30T00:30:36;23.30;99.90
33761;DHT22;20084;47.912;19.044;2023-07-30T00:33:02;23.20;99.90
33761;DHT22;20084;47.912;19.044;2023-07-30T00:35:27;23.20;99.90
33761;DHT22;20084;47.912;19.044;2023-07-30T00:37:52;23.20;99.90
33761;DHT22;20084;47.912;19.044;2023-07-30T00:40:18;23.20;99.90
33761;DHT22;20084;47.912;19.044;2023-07-30T00:42:43;23.10;99.90
33761;DHT22;20084;47.912;19.044;2023-07-30T00:45:09;23.00;99.90
33761;DHT22;20084;47.912;19.044;2023-07-30T00:47:36;22.90;99.90
33761;DHT22;20084;47.912;19.044;2023-07-30T00:50:02;22.80;99.90
33761;DHT22;20084;47.912;19.044;2023-07-30T00:52:27;22.70;99.90
33761;DHT22;20084;47.912;19.044;2023-07-30T00:54:53;22.60;99.90
33761;DHT22;20084;47.912;19.044;2023-07-30T00:57:19;22.50;99.90
33761;DHT22;20084;47.912;19.044;2023-07-30T00:59:45;22.50;99.90
33761;DHT22;20084;47.912;19.044;2023-07-30T01:02:11;22.50;99.90
33761;DHT22;20084;47.912;19.044;2023-07-30T01:04:37;22.40;99.90
33761;DHT22;20084;47.912;19.044;2023-07-30T01:07:05;22.30;99.90
33761;DHT22;20084;47.912;19.044;2023-07-30T01:09:31;22.30;99.90
33761;DHT22;20084;47.912;19.044;2023-07-30T01:11:56;22.20;99.90
33761;DHT22;20084;47.912;19.044;2023-07-30T01:14:23;22.10;99.90
33761;DHT22;20084;47.912;19.044;2023-07-30T01:16:48;22.00;99.90
33761;DHT22;20084;47.912;19.044;2023-07-30T01:19:14;22.00;99.90
33761;DHT22;20084;47.912;19.044;2023-07-30T01:21:39;21.90;99.90
33761;DHT22;20084;47.912;19.044;2023-07-30T01:24:05;21.80;99.90
33761;DHT22;20084;47.912;19.044;2023-07-30T01:26:38;21.70;99.90
33761;DHT22;20084;47.912;19.044;2023-07-30T01:29:05;21.60;99.90
33761;DHT22;20084;47.912;19.044;2023-07-30T01:31:32;21.50;99.90
33761;DHT22;20084;47.912;19.044;2023-07-30T01:33:59;21.40;99.90
33761;DHT22;20084;47.912;19.044;2023-07-30T01:36:27;21.40;99.90
33761;DHT22;20084;47.912;19.044;2023-07-30T01:38:53;21.30;99.90
33761;DHT22;20084;47.912;19.044;2023-07-30T01:41:19;21.20;99.90
33761;DHT22;20084;47.912;19.044;2023-07-30T01:43:44;21.20;99.90
33761;DHT22;20084;47.912;19.044;2023-07-30T01:46:10;21.20;99.90
33761;DHT22;20084;47.912;19.044;2023-07-30T01:48:35;21.20;99.90
33761;DHT22;20084;47.912;19.044;2023-07-30T01:51:01;21.30;99.90
33761;DHT22;20084;47.912;19.044;2023-07-30T01:53:26;21.30;99.90
33761;DHT22;20084;47.912;19.044;2023-07-30T01:55:52;21.30;99.90
33761;DHT22;20084;47.912;19.044;2023-07-30T01:58:17;21.30;99.90
33761;DHT22;20084;47.912;19.044;2023-07-30T02:00:43;21.40;99.90
33761;DHT22;20084;47.912;19.044;2023-07-30T02:03:09;21.40;99.90
33761;DHT22;20084;47.912;19.044;2023-07-30T02:05:34;21.30;99.90
33761;DHT22;20084;47.912;19.044;2023-07-30T02:08:00;21.40;99.90
33761;DHT22;20084;47.912;19.044;2023-07-30T02:10:25;21.30;99.90
33761;DHT22;20084;47.912;19.044;2023-07-30T02:12:51;21.30;99.90
33761;DHT22;20084;47.912;19.044;2023-07-30T02:15:17;21.30;99.90
33761;DHT22;20084;47.912;19.044;2023-07-30T02:17:42;21.30;99.90
33761;DHT22;20084;47.912;19.044;2023-07-30T02:20:08;21.30;99.90
33761;DHT22;20084;47.912;19.044;2023-07-30T02:22:33;21.40;99.90
33761;DHT22;20084;47.912;19.044;2023-07-30T02:24:59;21.40;99.90
33761;DHT22;20084;47.912;19.044;2023-07-30T02:27:24;21.40;99.90
33761;DHT22;20084;47.912;19.044;2023-07-30T02:29:50;21.40;99.90
33761;DHT22;20084;47.912;19.044;2023-07-30T02:32:15;21.40;99.90
33761;DHT22;20084;47.912;19.044;2023-07-30T02:34:41;21.40;99.90
33761;DHT22;20084;47.912;19.044;2023-07-30T02:37:06;21.40;99.90
33761;DHT22;20084;47.912;19.044;2023-07-30T02:39:32;21.30;99.90
33761;DHT22;20084;47.912;19.044;2023-07-30T02:41:57;21.40;99.90
33761;DHT22;20084;47.912;19.044;2023-07-30T02:44:23;21.40;99.90
33761;DHT22;20084;47.912;19.044;2023-07-30T02:46:49;21.50;99.90
33761;DHT22;20084;47.912;19.044;2023-07-30T02:49:14;21.50;99.90
33761;DHT22;20084;47.912;19.044;2023-07-30T02:51:40;21.50;99.90
33761;DHT22;20084;47.912;19.044;2023-07-30T02:54:07;21.50;99.90
33761;DHT22;20084;47.912;19.044;2023-07-30T02:56:33;21.40;99.90
33761;DHT22;20084;47.912;19.044;2023-07-30T02:58:58;21.30;99.90
33761;DHT22;20084;47.912;19.044;2023-07-30T03:01:24;21.30;99.90
33761;DHT22;20084;47.912;19.044;2023-07-30T03:03:50;21.30;99.90
33761;DHT22;20084;47.912;19.044;2023-07-30T03:06:15;21.30;99.90
33761;DHT22;20084;47.912;19.044;2023-07-30T03:08:42;21.30;99.90
33761;DHT22;20084;47.912;19.044;2023-07-30T03:11:08;21.20;99.90
33761;DHT22;20084;47.912;19.044;2023-07-30T03:13:33;21.30;99.90
33761;DHT22;20084;47.912;19.044;2023-07-30T03:15:59;21.30;99.90
33761;DHT22;20084;47.912;19.044;2023-07-30T03:18:24;21.20;99.90
33761;DHT22;20084;47.912;19.044;2023-07-30T03:20:50;21.30;99.90
33761;DHT22;20084;47.912;19.044;2023-07-30T03:23:16;21.30;99.90
33761;DHT22;20084;47.912;19.044;2023-07-30T03:25:41;21.30;99.90
33761;DHT22;20084;47.912;19.044;2023-07-30T03:28:06;21.30;99.90
33761;DHT22;20084;47.912;19.044;2023-07-30T03:30:32;21.20;99.90
33761;DHT22;20084;47.912;19.044;2023-07-30T03:32:57;21.20;99.90
33761;DHT22;20084;47.912;19.044;2023-07-30T03:35:23;21.20;99.90
33761;DHT22;20084;47.912;19.044;2023-07-30T03:37:48;21.10;99.90
33761;DHT22;20084;47.912;19.044;2023-07-30T03:40:14;21.10;99.90
33761;DHT22;20084;47.912;19.044;2023-07-30T03:42:40;21.10;99.90
33761;DHT22;20084;47.912;19.044;2023-07-30T03:45:05;21.10;99.90
33761;DHT22;20084;47.912;19.044;2023-07-30T03:47:31;21.10;99.90
33761;DHT22;20084;47.912;19.044;2023-07-30T03:49:56;21.10;99.90
33761;DHT22;20084;47.912;19.044;2023-07-30T03:52:22;21.10;99.90
33761;DHT22;20084;47.912;19.044;2023-07-30T03:54:47;21.10;99.90
33761;DHT22;20084;47.912;19.044;2023-07-30T03:57:13;21.00;99.90
33761;DHT22;20084;47.912;19.044;2023-07-30T03:59:38;21.00;99.90
33761;DHT22;20084;47.912;19.044;2023-07-30T04:02:04;21.10;99.90
33761;DHT22;20084;47.912;19.044;2023-07-30T04:04:29;21.10;99.90
33761;DHT22;20084;47.912;19.044;2023-07-30T04:06:55;21.10;99.90
33761;DHT22;20084;47.912;19.044;2023-07-30T04:09:20;21.10;99.90
33761;DHT22;20084;47.912;19.044;2023-07-30T04:11:46;21.20;99.90
33761;DHT22;20084;47.912;19.044;2023-07-30T04:14:11;21.20;99.90
33761;DHT22;20084;47.912;19.044;2023-07-30T04:16:37;21.20;99.90
33761;DHT22;20084;47.912;19.044;2023-07-30T04:19:02;21.30;99.90
33761;DHT22;20084;47.912;19.044;2023-07-30T04:21:28;21.30;99.90
33761;DHT22;20084;47.912;19.044;2023-07-30T04:23:53;21.30;99.90
33761;DHT22;20084;47.912;19.044;2023-07-30T04:26:19;21.30;99.90
33761;DHT22;20084;47.912;19.044;2023-07-30T04:28:44;21.30;99.90
33761;DHT22;20084;47.912;19.044;2023-07-30T04:31:10;21.30;99.90
33761;DHT22;20084;47.912;19.044;2023-07-30T04:33:35;21.30;99.90
33761;DHT22;20084;47.912;19.044;2023-07-30T04:36:01;21.30;99.90
33761;DHT22;20084;47.912;19.044;2023-07-30T04:38:27;21.30;99.90
33761;DHT22;20084;47.912;19.044;2023-07-30T04:40:53;21.30;99.90
33761;DHT22;20084;47.912;19.044;2023-07-30T04:43:18;21.30;99.90
33761;DHT22;20084;47.912;19.044;2023-07-30T04:45:44;21.30;99.90
33761;DHT22;20084;47.912;19.044;2023-07-30T04:48:09;21.40;99.90
33761;DHT22;20084;47.912;19.044;2023-07-30T04:50:35;21.30;99.90
33761;DHT22;20084;47.912;19.044;2023-07-30T04:53:00;21.30;99.90
33761;DHT22;20084;47.912;19.044;2023-07-30T04:55:26;21.30;99.90
33761;DHT22;20084;47.912;19.044;2023-07-30T04:57:51;21.30;99.90
33761;DHT22;20084;47.912;19.044;2023-07-30T05:00:17;21.30;99.90
33761;DHT22;20084;47.912;19.044;2023-07-30T05:02:42;21.20;99.90
33761;DHT22;20084;47.912;19.044;2023-07-30T05:05:08;21.20;99.90
33761;DHT22;20084;47.912;19.044;2023-07-30T05:07:33;21.30;99.90
33761;DHT22;20084;47.912;19.044;2023-07-30T05:09:59;21.30;99.90
33761;DHT22;20084;47.912;19.044;2023-07-30T05:12:24;21.30;99.90
33761;DHT22;20084;47.912;19.044;2023-07-30T05:14:50;21.30;99.90
33761;DHT22;20084;47.912;19.044;2023-07-30T05:17:15;21.40;99.90
33761;DHT22;20084;47.912;19.044;2023-07-30T05:19:41;21.30;99.90
33761;DHT22;20084;47.912;19.044;2023-07-30T05:22:06;21.40;99.90
33761;DHT22;20084;47.912;19.044;2023-07-30T05:24:33;21.40;99.90
33761;DHT22;20084;47.912;19.044;2023-07-30T05:26:59;21.40;99.90
33761;DHT22;20084;47.912;19.044;2023-07-30T05:29:24;21.40;99.90
33761;DHT22;20084;47.912;19.044;2023-07-30T05:31:50;21.50;99.90
33761;DHT22;20084;47.912;19.044;2023-07-30T05:34:15;21.50;99.90
33761;DHT22;20084;47.912;19.044;2023-07-30T05:36:41;21.50;99.90
33761;DHT22;20084;47.912;19.044;2023-07-30T05:39:06;21.60;99.90
33761;DHT22;20084;47.912;19.044;2023-07-30T05:41:32;21.70;99.90
33761;DHT22;20084;47.912;19.044;2023-07-30T05:43:57;21.80;99.90
33761;DHT22;20084;47.912;19.044;2023-07-30T05:46:22;21.80;99.90
33761;DHT22;20084;47.912;19.044;2023-07-30T05:48:48;21.80;99.90
33761;DHT22;20084;47.912;19.044;2023-07-30T05:51:13;21.90;99.90
33761;DHT22;20084;47.912;19.044;2023-07-30T05:53:39;21.90;99.90
33761;DHT22;20084;47.912;19.044;2023-07-30T05:56:04;21.90;99.90
33761;DHT22;20084;47.912;19.044;2023-07-30T05:58:30;22.00;99.90
33761;DHT22;20084;47.912;19.044;2023-07-30T06:00:56;21.90;99.90
33761;DHT22;20084;47.912;19.044;2023-07-30T06:03:22;22.00;99.90
33761;DHT22;20084;47.912;19.044;2023-07-30T06:05:47;22.10;99.90
33761;DHT22;20084;47.912;19.044;2023-07-30T06:08:13;22.10;99.90
33761;DHT22;20084;47.912;19.044;2023-07-30T06:10:38;22.10;99.90
33761;DHT22;20084;47.912;19.044;2023-07-30T06:13:05;22.10;99.90
33761;DHT22;20084;47.912;19.044;2023-07-30T06:15:31;22.20;99.90
33761;DHT22;20084;47.912;19.044;2023-07-30T06:17:57;22.20;99.90
33761;DHT22;20084;47.912;19.044;2023-07-30T06:20:22;22.20;99.90
33761;DHT22;20084;47.912;19.044;2023-07-30T06:22:48;22.10;99.90
33761;DHT22;20084;47.912;19.044;2023-07-30T06:25:13;22.20;99.90
33761;DHT22;20084;47.912;19.044;2023-07-30T06:27:39;22.30;99.90
33761;DHT22;20084;47.912;19.044;2023-07-30T06:30:05;22.30;99.90
33761;DHT22;20084;47.912;19.044;2023-07-30T06:32:30;22.30;99.90
33761;DHT22;20084;47.912;19.044;2023-07-30T06:34:56;22.40;99.90
33761;DHT22;20084;47.912;19.044;2023-07-30T06:37:21;22.50;99.90
33761;DHT22;20084;47.912;19.044;2023-07-30T06:39:47;22.50;99.90
33761;DHT22;20084;47.912;19.044;2023-07-30T06:42:12;22.50;99.90
33761;DHT22;20084;47.912;19.044;2023-07-30T06:44:38;22.60;99.90
33761;DHT22;20084;47.912;19.044;2023-07-30T06:47:03;22.60;99.90
33761;DHT22;20084;47.912;19.044;2023-07-30T06:49:29;22.70;99.90
33761;DHT22;20084;47.912;19.044;2023-07-30T06:51:54;22.70;99.90
33761;DHT22;20084;47.912;19.044;2023-07-30T06:54:20;22.70;99.90
33761;DHT22;20084;47.912;19.044;2023-07-30T06:56:45;22.80;99.90
33761;DHT22;20084;47.912;19.044;2023-07-30T06:59:11;22.80;99.90
33761;DHT22;20084;47.912;19.044;2023-07-30T07:01:36;22.80;99.90
33761;DHT22;20084;47.912;19.044;2023-07-30T07:04:02;22.80;99.90
33761;DHT22;20084;47.912;19.044;2023-07-30T07:06:27;22.80;99.90
33761;DHT22;20084;47.912;19.044;2023-07-30T07:08:53;22.90;99.90
33761;DHT22;20084;47.912;19.044;2023-07-30T07:11:19;22.80;99.90
33761;DHT22;20084;47.912;19.044;2023-07-30T07:13:44;22.80;99.90
33761;DHT22;20084;47.912;19.044;2023-07-30T07:16:09;22.80;99.90
33761;DHT22;20084;47.912;19.044;2023-07-30T07:18:35;22.70;99.90
33761;DHT22;20084;47.912;19.044;2023-07-30T07:21:01;22.70;99.90
33761;DHT22;20084;47.912;19.044;2023-07-30T07:23:26;22.80;99.90
33761;DHT22;20084;47.912;19.044;2023-07-30T07:25:52;22.70;99.90
33761;DHT22;20084;47.912;19.044;2023-07-30T07:28:17;22.70;99.90
33761;DHT22;20084;47.912;19.044;2023-07-30T07:30:44;22.70;99.90
33761;DHT22;20084;47.912;19.044;2023-07-30T07:33:10;22.70;99.90
33761;DHT22;20084;47.912;19.044;2023-07-30T07:35:40;22.70;99.90
33761;DHT22;20084;47.912;19.044;2023-07-30T07:38:06;22.70;99.90
33761;DHT22;20084;47.912;19.044;2023-07-30T07:40:38;22.60;99.90
33761;DHT22;20084;47.912;19.044;2023-07-30T07:43:07;22.60;99.90
33761;DHT22;20084;47.912;19.044;2023-07-30T07:45:33;22.50;99.90
33761;DHT22;20084;47.912;19.044;2023-07-30T07:47:58;22.40;99.90
33761;DHT22;20084;47.912;19.044;2023-07-30T07:50:24;22.30;99.90
33761;DHT22;20084;47.912;19.044;2023-07-30T07:52:49;22.10;99.90
33761;DHT22;20084;47.912;19.044;2023-07-30T07:55:15;22.10;99.90
33761;DHT22;20084;47.912;19.044;2023-07-30T07:57:40;22.10;99.90
33761;DHT22;20084;47.912;19.044;2023-07-30T08:00:06;22.00;99.90
33761;DHT22;20084;47.912;19.044;2023-07-30T08:02:32;21.90;99.90
33761;DHT22;20084;47.912;19.044;2023-07-30T08:04:57;21.80;99.90
33761;DHT22;20084;47.912;19.044;2023-07-30T08:07:23;21.80;99.90
33761;DHT22;20084;47.912;19.044;2023-07-30T08:09:48;21.70;99.90
33761;DHT22;20084;47.912;19.044;2023-07-30T08:12:14;21.60;99.90
33761;DHT22;20084;47.912;19.044;2023-07-30T08:14:39;21.50;99.90
33761;DHT22;20084;47.912;19.044;2023-07-30T08:17:05;21.50;99.90
33761;DHT22;20084;47.912;19.044;2023-07-30T08:19:31;21.40;99.90
33761;DHT22;20084;47.912;19.044;2023-07-30T08:21:57;21.40;99.90
33761;DHT22;20084;47.912;19.044;2023-07-30T08:24:23;21.40;99.90
33761;DHT22;20084;47.912;19.044;2023-07-30T08:26:49;21.30;99.90
33761;DHT22;20084;47.912;19.044;2023-07-30T08:29:14;21.30;99.90
33761;DHT22;20084;47.912;19.044;2023-07-30T08:31:40;21.20;99.90
33761;DHT22;20084;47.912;19.044;2023-07-30T08:34:06;21.20;99.90
33761;DHT22;20084;47.912;19.044;2023-07-30T08:36:31;21.20;99.90
33761;DHT22;20084;47.912;19.044;2023-07-30T08:38:57;21.20;99.90
33761;DHT22;20084;47.912;19.044;2023-07-30T08:41:23;21.20;99.90
33761;DHT22;20084;47.912;19.044;2023-07-30T08:43:48;21.20;99.90
33761;DHT22;20084;47.912;19.044;2023-07-30T08:46:17;21.30;99.90
33761;DHT22;20084;47.912;19.044;2023-07-30T08:48:42;21.30;99.90
33761;DHT22;20084;47.912;19.044;2023-07-30T08:51:08;21.30;99.90
33761;DHT22;20084;47.912;19.044;2023-07-30T08:53:34;21.40;99.90
33761;DHT22;20084;47.912;19.044;2023-07-30T08:56:00;21.40;99.90
33761;DHT22;20084;47.912;19.044;2023-07-30T08:58:26;21.30;99.90
33761;DHT22;20084;47.912;19.044;2023-07-30T09:00:53;21.40;99.90
33761;DHT22;20084;47.912;19.044;2023-07-30T09:03:20;21.50;99.90
33761;DHT22;20084;47.912;19.044;2023-07-30T09:05:46;21.50;99.90
33761;DHT22;20084;47.912;19.044;2023-07-30T09:08:12;21.50;99.90
33761;DHT22;20084;47.912;19.044;2023-07-30T09:10:37;21.40;99.90
33761;DHT22;20084;47.912;19.044;2023-07-30T09:13:03;21.40;99.90
33761;DHT22;20084;47.912;19.044;2023-07-30T09:15:32;21.40;99.90
33761;DHT22;20084;47.912;19.044;2023-07-30T09:17:59;21.40;99.90
33761;DHT22;20084;47.912;19.044;2023-07-30T09:20:24;21.30;99.90
33761;DHT22;20084;47.912;19.044;2023-07-30T09:22:50;21.30;99.90
33761;DHT22;20084;47.912;19.044;2023-07-30T09:25:17;21.30;99.90
33761;DHT22;20084;47.912;19.044;2023-07-30T09:27:51;21.20;99.90
33761;DHT22;20084;47.912;19.044;2023-07-30T09:30:23;21.20;99.90
33761;DHT22;20084;47.912;19.044;2023-07-30T09:32:52;21.20;99.90
33761;DHT22;20084;47.912;19.044;2023-07-30T09:35:18;21.10;99.90
33761;DHT22;20084;47.912;19.044;2023-07-30T09:37:44;21.10;99.90
33761;DHT22;20084;47.912;19.044;2023-07-30T09:40:11;21.10;99.90
33761;DHT22;20084;47.912;19.044;2023-07-30T09:42:43;21.10;99.90
33761;DHT22;20084;47.912;19.044;2023-07-30T09:45:22;21.00;99.90
33761;DHT22;20084;47.912;19.044;2023-07-30T09:47:49;21.00;99.90
33761;DHT22;20084;47.912;19.044;2023-07-30T09:50:15;21.00;99.90
33761;DHT22;20084;47.912;19.044;2023-07-30T09:52:41;21.00;99.90
33761;DHT22;20084;47.912;19.044;2023-07-30T09:55:08;21.00;99.90
33761;DHT22;20084;47.912;19.044;2023-07-30T09:57:33;20.90;99.90
33761;DHT22;20084;47.912;19.044;2023-07-30T09:59:59;20.80;99.90
33761;DHT22;20084;47.912;19.044;2023-07-30T10:02:25;20.90;99.90
33761;DHT22;20084;47.912;19.044;2023-07-30T10:04:53;20.90;99.90
33761;DHT22;20084;47.912;19.044;2023-07-30T10:07:22;21.00;99.90
33761;DHT22;20084;47.912;19.044;2023-07-30T10:09:48;21.00;99.90
33761;DHT22;20084;47.912;19.044;2023-07-30T10:12:16;21.10;99.90
33761;DHT22;20084;47.912;19.044;2023-07-30T10:14:43;21.10;99.90
33761;DHT22;20084;47.912;19.044;2023-07-30T10:17:09;21.20;99.90
33761;DHT22;20084;47.912;19.044;2023-07-30T10:19:35;21.30;99.90
33761;DHT22;20084;47.912;19.044;2023-07-30T10:22:34;21.30;99.90
33761;DHT22;20084;47.912;19.044;2023-07-30T10:24:56;21.30;99.90
33761;DHT22;20084;47.912;19.044;2023-07-30T10:27:23;21.40;99.90
33761;DHT22;20084;47.912;19.044;2023-07-30T10:29:50;21.40;99.90
33761;DHT22;20084;47.912;19.044;2023-07-30T10:35:44;21.50;99.90
33761;DHT22;20084;47.912;19.044;2023-07-30T10:38:18;21.60;99.90
33761;DHT22;20084;47.912;19.044;2023-07-30T10:43:36;21.60;99.90
33761;DHT22;20084;47.912;19.044;2023-07-30T10:46:02;21.70;99.90
33761;DHT22;20084;47.912;19.044;2023-07-30T10:48:32;21.70;99.90
33761;DHT22;20084;47.912;19.044;2023-07-30T10:50:58;21.70;99.90
33761;DHT22;20084;47.912;19.044;2023-07-30T10:53:24;21.70;99.90
33761;DHT22;20084;47.912;19.044;2023-07-30T10:55:50;21.80;99.90
33761;DHT22;20084;47.912;19.044;2023-07-30T10:58:15;21.80;99.90
33761;DHT22;20084;47.912;19.044;2023-07-30T11:00:41;21.80;99.90
33761;DHT22;20084;47.912;19.044;2023-07-30T11:03:07;21.70;99.90
33761;DHT22;20084;47.912;19.044;2023-07-30T11:05:32;21.70;99.90
33761;DHT22;20084;47.912;19.044;2023-07-30T11:07:58;21.70;99.90
33761;DHT22;20084;47.912;19.044;2023-07-30T11:10:23;21.80;99.90
33761;DHT22;20084;47.912;19.044;2023-07-30T11:12:49;21.80;99.90
33761;DHT22;20084;47.912;19.044;2023-07-30T11:15:15;21.80;99.90
33761;DHT22;20084;47.912;19.044;2023-07-30T11:17:40;21.80;99.90
33761;DHT22;20084;47.912;19.044;2023-07-30T11:20:06;21.80;99.90
33761;DHT22;20084;47.912;19.044;2023-07-30T11:22:33;21.80;99.90
33761;DHT22;20084;47.912;19.044;2023-07-30T11:24:59;21.80;99.90
33761;DHT22;20084;47.912;19.044;2023-07-30T11:27:27;21.80;99.90
33761;DHT22;20084;47.912;19.044;2023-07-30T11:29:56;21.90;99.90
33761;DHT22;20084;47.912;19.044;2023-07-30T11:32:21;21.80;99.90
33761;DHT22;20084;47.912;19.044;2023-07-30T11:34:50;21.80;99.90
33761;DHT22;20084;47.912;19.044;2023-07-30T11:37:16;21.80;99.90
33761;DHT22;20084;47.912;19.044;2023-07-30T11:39:42;21.80;99.90
33761;DHT22;20084;47.912;19.044;2023-07-30T11:42:07;21.90;99.90
33761;DHT22;20084;47.912;19.044;2023-07-30T11:44:37;21.90;99.90
33761;DHT22;20084;47.912;19.044;2023-07-30T11:47:06;21.90;99.90
33761;DHT22;20084;47.912;19.044;2023-07-30T11:49:32;21.90;99.90
33761;DHT22;20084;47.912;19.044;2023-07-30T11:52:07;21.90;99.90
33761;DHT22;20084;47.912;19.044;2023-07-30T11:54:33;21.90;99.90
33761;DHT22;20084;47.912;19.044;2023-07-30T11:56:59;21.90;99.90
33761;DHT22;20084;47.912;19.044;2023-07-30T11:59:24;21.80;99.90
33761;DHT22;20084;47.912;19.044;2023-07-30T12:01:50;21.80;99.90
33761;DHT22;20084;47.912;19.044;2023-07-30T12:04:15;21.80;99.90
33761;DHT22;20084;47.912;19.044;2023-07-30T12:06:41;21.80;99.90
33761;DHT22;20084;47.912;19.044;2023-07-30T12:09:11;21.70;99.90
33761;DHT22;20084;47.912;19.044;2023-07-30T12:11:43;21.70;99.90
33761;DHT22;20084;47.912;19.044;2023-07-30T12:14:09;21.70;99.90
33761;DHT22;20084;47.912;19.044;2023-07-30T12:16:34;21.70;99.90
33761;DHT22;20084;47.912;19.044;2023-07-30T12:19:00;21.70;99.90
33761;DHT22;20084;47.912;19.044;2023-07-30T12:21:26;21.60;99.90
33761;DHT22;20084;47.912;19.044;2023-07-30T12:23:51;21.60;99.90
33761;DHT22;20084;47.912;19.044;2023-07-30T12:26:17;21.50;99.90
33761;DHT22;20084;47.912;19.044;2023-07-30T12:28:42;21.40;99.90
33761;DHT22;20084;47.912;19.044;2023-07-30T12:31:08;21.40;99.90
33761;DHT22;20084;47.912;19.044;2023-07-30T12:33:33;21.30;99.90
33761;DHT22;20084;47.912;19.044;2023-07-30T12:35:59;21.30;99.90
33761;DHT22;20084;47.912;19.044;2023-07-30T12:38:24;21.40;99.90
33761;DHT22;20084;47.912;19.044;2023-07-30T12:40:50;21.40;99.90
33761;DHT22;20084;47.912;19.044;2023-07-30T12:43:16;21.50;99.90
33761;DHT22;20084;47.912;19.044;2023-07-30T12:45:41;21.50;99.90
33761;DHT22;20084;47.912;19.044;2023-07-30T12:48:07;21.60;99.90
33761;DHT22;20084;47.912;19.044;2023-07-30T12:50:33;21.60;99.90
33761;DHT22;20084;47.912;19.044;2023-07-30T12:52:58;21.60;99.90
33761;DHT22;20084;47.912;19.044;2023-07-30T12:55:24;21.70;99.90
33761;DHT22;20084;47.912;19.044;2023-07-30T12:57:49;21.80;99.90
33761;DHT22;20084;47.912;19.044;2023-07-30T13:00:15;21.80;99.90
33761;DHT22;20084;47.912;19.044;2023-07-30T13:02:42;21.80;99.90
33761;DHT22;20084;47.912;19.044;2023-07-30T13:05:08;21.90;99.90
33761;DHT22;20084;47.912;19.044;2023-07-30T13:07:34;21.90;99.90
33761;DHT22;20084;47.912;19.044;2023-07-30T13:10:03;21.90;99.90
33761;DHT22;20084;47.912;19.044;2023-07-30T13:12:29;21.90;99.90
33761;DHT22;20084;47.912;19.044;2023-07-30T13:14:55;22.00;99.90
33761;DHT22;20084;47.912;19.044;2023-07-30T13:17:20;22.00;99.90
33761;DHT22;20084;47.912;19.044;2023-07-30T13:19:46;22.10;99.90
33761;DHT22;20084;47.912;19.044;2023-07-30T13:22:12;22.10;99.90
33761;DHT22;20084;47.912;19.044;2023-07-30T13:24:38;22.10;99.90
33761;DHT22;20084;47.912;19.044;2023-07-30T13:27:05;22.20;99.90
33761;DHT22;20084;47.912;19.044;2023-07-30T13:29:31;22.30;99.90
33761;DHT22;20084;47.912;19.044;2023-07-30T13:31:57;22.40;99.90
33761;DHT22;20084;47.912;19.044;2023-07-30T13:34:22;22.50;99.90
33761;DHT22;20084;47.912;19.044;2023-07-30T13:36:48;22.50;99.90
33761;DHT22;20084;47.912;19.044;2023-07-30T13:39:14;22.50;99.90
33761;DHT22;20084;47.912;19.044;2023-07-30T13:41:40;22.50;99.90
33761;DHT22;20084;47.912;19.044;2023-07-30T13:44:06;22.60;99.90
33761;DHT22;20084;47.912;19.044;2023-07-30T13:46:31;22.60;99.90
33761;DHT22;20084;47.912;19.044;2023-07-30T13:48:58;22.70;99.90
33761;DHT22;20084;47.912;19.044;2023-07-30T13:51:23;22.80;99.90
33761;DHT22;20084;47.912;19.044;2023-07-30T13:53:49;22.90;99.90
33761;DHT22;20084;47.912;19.044;2023-07-30T13:56:15;23.00;99.90
33761;DHT22;20084;47.912;19.044;2023-07-30T13:58:41;23.00;99.90
33761;DHT22;20084;47.912;19.044;2023-07-30T14:01:06;23.00;99.90
33761;DHT22;20084;47.912;19.044;2023-07-30T14:03:34;23.00;99.90
33761;DHT22;20084;47.912;19.044;2023-07-30T14:06:00;23.00;99.90
33761;DHT22;20084;47.912;19.044;2023-07-30T14:08:25;23.10;99.90
33761;DHT22;20084;47.912;19.044;2023-07-30T14:10:51;23.10;99.90
33761;DHT22;20084;47.912;19.044;2023-07-30T14:13:17;23.20;99.90
33761;DHT22;20084;47.912;19.044;2023-07-30T14:15:43;23.20;99.90
33761;DHT22;20084;47.912;19.044;2023-07-30T14:18:09;23.30;99.90
33761;DHT22;20084;47.912;19.044;2023-07-30T14:20:36;23.50;99.90
33761;DHT22;20084;47.912;19.044;2023-07-30T14:23:03;23.60;99.90
33761;DHT22;20084;47.912;19.044;2023-07-30T14:25:29;23.70;99.90
33761;DHT22;20084;47.912;19.044;2023-07-30T14:27:55;23.70;99.90
33761;DHT22;20084;47.912;19.044;2023-07-30T14:30:21;23.70;99.90
33761;DHT22;20084;47.912;19.044;2023-07-30T14:32:46;23.70;99.90
33761;DHT22;20084;47.912;19.044;2023-07-30T14:35:12;23.70;99.90
33761;DHT22;20084;47.912;19.044;2023-07-30T14:37:37;23.60;99.90
33761;DHT22;20084;47.912;19.044;2023-07-30T14:40:03;23.60;99.90
33761;DHT22;20084;47.912;19.044;2023-07-30T14:42:29;23.60;99.90
33761;DHT22;20084;47.912;19.044;2023-07-30T14:44:54;23.60;99.90
33761;DHT22;20084;47.912;19.044;2023-07-30T14:47:20;23.50;99.90
33761;DHT22;20084;47.912;19.044;2023-07-30T14:49:47;23.40;99.90
33761;DHT22;20084;47.912;19.044;2023-07-30T14:52:13;23.30;99.90
33761;DHT22;20084;47.912;19.044;2023-07-30T14:54:39;23.20;99.90
33761;DHT22;20084;47.912;19.044;2023-07-30T14:57:05;23.20;99.90
33761;DHT22;20084;47.912;19.044;2023-07-30T14:59:30;23.10;99.90
33761;DHT22;20084;47.912;19.044;2023-07-30T15:01:56;23.10;99.90
33761;DHT22;20084;47.912;19.044;2023-07-30T15:04:22;23.00;99.90
33761;DHT22;20084;47.912;19.044;2023-07-30T15:06:48;22.90;99.90
33761;DHT22;20084;47.912;19.044;2023-07-30T15:09:14;22.70;99.90
33761;DHT22;20084;47.912;19.044;2023-07-30T15:11:40;22.60;99.90
33761;DHT22;20084;47.912;19.044;2023-07-30T15:14:06;22.50;99.90